sensor_id;sensor_type;location;lat;lon;timestamp;P1;durP1;ratioP1;P2;durP2;ratioP2
76167;SDS011;64927;48.214;16.378;2023-03-14T00:01:19;8.27;;;4.30;;
76167;SDS011;64927;48.214;16.378;2023-03-14T00:03:45;9.80;;;4.30;;
76167;SDS011;64927;48.214;16.378;2023-03-14T00:06:11;8.00;;;4.07;;
76167;SDS011;64927;48.214;16.378;2023-03-14T00:08:38;10.10;;;4.25;;
76167;SDS011;64927;48.214;16.378;2023-03-14T00:11:08;9.25;;;4.20;;
76167;SDS011;64927;48.214;16.378;2023-03-14T00:13:38;8.68;;;4.05;;
76167;SDS011;64927;48.214;16.378;2023-03-14T00:16:10;12.90;;;4.22;;
76167;SDS011;64927;48.214;16.378;2023-03-14T00:18:41;6.82;;;3.53;;
76167;SDS011;64927;48.214;16.378;2023-03-14T00:21:07;7.57;;;3.85;;
76167;SDS011;64927;48.214;16.378;2023-03-14T00:23:34;8.98;;;3.72;;
76167;SDS011;64927;48.214;16.378;2023-03-14T00:26:03;8.98;;;3.92;;
76167;SDS011;64927;48.214;16.378;2023-03-14T00:28:30;8.20;;;3.97;;
76167;SDS011;64927;48.214;16.378;2023-03-14T00:30:56;6.07;;;3.60;;
76167;SDS011;64927;48.214;16.378;2023-03-14T00:33:22;10.23;;;4.13;;
76167;SDS011;64927;48.214;16.378;2023-03-14T00:35:58;11.93;;;4.25;;
76167;SDS011;64927;48.214;16.378;2023-03-14T00:38:31;9.95;;;3.85;;
76167;SDS011;64927;48.214;16.378;2023-03-14T00:40:58;6.65;;;3.45;;
76167;SDS011;64927;48.214;16.378;2023-03-14T00:43:24;5.28;;;3.35;;
76167;SDS011;64927;48.214;16.378;2023-03-14T00:45:50;8.65;;;3.63;;
76167;SDS011;64927;48.214;16.378;2023-03-14T00:48:17;6.68;;;3.33;;
76167;SDS011;64927;48.214;16.378;2023-03-14T00:50:47;7.15;;;3.58;;
76167;SDS011;64927;48.214;16.378;2023-03-14T00:53:13;11.23;;;3.90;;
76167;SDS011;64927;48.214;16.378;2023-03-14T00:55:39;9.45;;;3.70;;
76167;SDS011;64927;48.214;16.378;2023-03-14T00:58:08;14.18;;;3.83;;
76167;SDS011;64927;48.214;16.378;2023-03-14T01:00:35;8.90;;;3.38;;
76167;SDS011;64927;48.214;16.378;2023-03-14T01:03:01;7.78;;;3.85;;
76167;SDS011;64927;48.214;16.378;2023-03-14T01:05:27;7.22;;;3.50;;
76167;SDS011;64927;48.214;16.378;2023-03-14T01:07:55;7.75;;;3.42;;
76167;SDS011;64927;48.214;16.378;2023-03-14T01:10:21;6.03;;;3.55;;
76167;SDS011;64927;48.214;16.378;2023-03-14T01:12:47;6.32;;;3.60;;
76167;SDS011;64927;48.214;16.378;2023-03-14T01:15:13;12.63;;;3.85;;
76167;SDS011;64927;48.214;16.378;2023-03-14T01:17:38;9.38;;;3.83;;
76167;SDS011;64927;48.214;16.378;2023-03-14T01:20:07;8.95;;;3.38;;
76167;SDS011;64927;48.214;16.378;2023-03-14T01:22:37;9.05;;;3.47;;
76167;SDS011;64927;48.214;16.378;2023-03-14T01:25:07;8.57;;;3.20;;
76167;SDS011;64927;48.214;16.378;2023-03-14T01:27:39;9.50;;;4.22;;
76167;SDS011;64927;48.214;16.378;2023-03-14T01:30:05;6.57;;;3.38;;
76167;SDS011;64927;48.214;16.378;2023-03-14T01:32:33;11.25;;;4.30;;
76167;SDS011;64927;48.214;16.378;2023-03-14T01:35:01;9.38;;;3.90;;
76167;SDS011;64927;48.214;16.378;2023-03-14T01:37:27;12.43;;;4.00;;
76167;SDS011;64927;48.214;16.378;2023-03-14T01:39:54;8.75;;;4.05;;
76167;SDS011;64927;48.214;16.378;2023-03-14T01:42:20;9.57;;;3.63;;
76167;SDS011;64927;48.214;16.378;2023-03-14T01:44:50;8.45;;;3.50;;
76167;SDS011;64927;48.214;16.378;2023-03-14T01:47:19;9.85;;;3.80;;
76167;SDS011;64927;48.214;16.378;2023-03-14T01:49:46;7.35;;;3.75;;
76167;SDS011;64927;48.214;16.378;2023-03-14T01:54:54;11.48;;;4.13;;
76167;SDS011;64927;48.214;16.378;2023-03-14T02:02:49;7.93;;;4.47;;
76167;SDS011;64927;48.214;16.378;2023-03-14T02:05:22;10.13;;;4.45;;
76167;SDS011;64927;48.214;16.378;2023-03-14T02:07:51;10.75;;;4.15;;
76167;SDS011;64927;48.214;16.378;2023-03-14T02:10:22;10.55;;;4.53;;
76167;SDS011;64927;48.214;16.378;2023-03-14T02:12:51;8.32;;;4.63;;
76167;SDS011;64927;48.214;16.378;2023-03-14T02:15:23;12.13;;;4.15;;
76167;SDS011;64927;48.214;16.378;2023-03-14T02:17:49;14.13;;;4.40;;
76167;SDS011;64927;48.214;16.378;2023-03-14T02:23:05;10.43;;;4.55;;
76167;SDS011;64927;48.214;16.378;2023-03-14T02:25:38;15.05;;;4.80;;
76167;SDS011;64927;48.214;16.378;2023-03-14T02:28:17;9.85;;;4.78;;
76167;SDS011;64927;48.214;16.378;2023-03-14T02:30:43;13.70;;;4.15;;
76167;SDS011;64927;48.214;16.378;2023-03-14T02:33:10;13.70;;;4.75;;
76167;SDS011;64927;48.214;16.378;2023-03-14T02:35:43;9.18;;;4.70;;
76167;SDS011;64927;48.214;16.378;2023-03-14T02:40:56;10.23;;;4.90;;
76167;SDS011;64927;48.214;16.378;2023-03-14T02:43:24;12.05;;;4.63;;
76167;SDS011;64927;48.214;16.378;2023-03-14T02:45:52;10.10;;;4.97;;
76167;SDS011;64927;48.214;16.378;2023-03-14T02:48:26;10.88;;;4.53;;
76167;SDS011;64927;48.214;16.378;2023-03-14T02:50:53;8.63;;;4.00;;
76167;SDS011;64927;48.214;16.378;2023-03-14T02:53:28;12.15;;;4.20;;
76167;SDS011;64927;48.214;16.378;2023-03-14T02:55:59;7.57;;;4.30;;
76167;SDS011;64927;48.214;16.378;2023-03-14T02:58:27;7.93;;;4.50;;
76167;SDS011;64927;48.214;16.378;2023-03-14T03:00:53;9.48;;;3.97;;
76167;SDS011;64927;48.214;16.378;2023-03-14T03:03:19;7.80;;;4.43;;
76167;SDS011;64927;48.214;16.378;2023-03-14T03:05:51;10.20;;;4.32;;
76167;SDS011;64927;48.214;16.378;2023-03-14T03:08:19;9.13;;;4.40;;
76167;SDS011;64927;48.214;16.378;2023-03-14T03:10:46;9.43;;;4.85;;
76167;SDS011;64927;48.214;16.378;2023-03-14T03:13:14;9.35;;;3.90;;
76167;SDS011;64927;48.214;16.378;2023-03-14T03:15:41;8.52;;;3.92;;
76167;SDS011;64927;48.214;16.378;2023-03-14T03:18:07;9.27;;;4.15;;
76167;SDS011;64927;48.214;16.378;2023-03-14T03:20:35;10.10;;;3.78;;
76167;SDS011;64927;48.214;16.378;2023-03-14T03:23:01;12.52;;;4.70;;
76167;SDS011;64927;48.214;16.378;2023-03-14T03:25:27;9.70;;;4.57;;
76167;SDS011;64927;48.214;16.378;2023-03-14T03:27:53;13.68;;;5.10;;
76167;SDS011;64927;48.214;16.378;2023-03-14T03:30:21;8.45;;;4.75;;
76167;SDS011;64927;48.214;16.378;2023-03-14T03:32:47;10.15;;;4.93;;
76167;SDS011;64927;48.214;16.378;2023-03-14T03:35:13;11.25;;;4.55;;
76167;SDS011;64927;48.214;16.378;2023-03-14T03:37:41;7.85;;;4.22;;
76167;SDS011;64927;48.214;16.378;2023-03-14T03:40:09;8.75;;;3.58;;
76167;SDS011;64927;48.214;16.378;2023-03-14T03:42:38;7.57;;;4.47;;
76167;SDS011;64927;48.214;16.378;2023-03-14T03:45:04;8.60;;;4.57;;
76167;SDS011;64927;48.214;16.378;2023-03-14T03:47:32;12.52;;;4.25;;
76167;SDS011;64927;48.214;16.378;2023-03-14T03:49:57;9.68;;;4.32;;
76167;SDS011;64927;48.214;16.378;2023-03-14T03:52:23;9.63;;;4.68;;
76167;SDS011;64927;48.214;16.378;2023-03-14T03:54:49;7.43;;;4.15;;
76167;SDS011;64927;48.214;16.378;2023-03-14T03:57:14;9.57;;;4.75;;
76167;SDS011;64927;48.214;16.378;2023-03-14T03:59:42;11.63;;;5.00;;
76167;SDS011;64927;48.214;16.378;2023-03-14T04:02:08;9.48;;;4.60;;
76167;SDS011;64927;48.214;16.378;2023-03-14T04:04:34;10.23;;;4.20;;
76167;SDS011;64927;48.214;16.378;2023-03-14T04:06:59;8.05;;;4.97;;
76167;SDS011;64927;48.214;16.378;2023-03-14T04:09:25;11.23;;;4.40;;
76167;SDS011;64927;48.214;16.378;2023-03-14T04:11:51;10.07;;;4.70;;
76167;SDS011;64927;48.214;16.378;2023-03-14T04:14:16;8.23;;;4.85;;
76167;SDS011;64927;48.214;16.378;2023-03-14T04:16:44;10.90;;;4.75;;
76167;SDS011;64927;48.214;16.378;2023-03-14T04:19:10;8.65;;;5.03;;
76167;SDS011;64927;48.214;16.378;2023-03-14T04:21:36;7.88;;;4.57;;
76167;SDS011;64927;48.214;16.378;2023-03-14T04:24:01;8.35;;;4.90;;
76167;SDS011;64927;48.214;16.378;2023-03-14T04:26:27;8.52;;;4.78;;
76167;SDS011;64927;48.214;16.378;2023-03-14T04:28:53;12.98;;;5.38;;
76167;SDS011;64927;48.214;16.378;2023-03-14T04:31:21;9.07;;;5.07;;
76167;SDS011;64927;48.214;16.378;2023-03-14T04:33:47;13.75;;;4.80;;
76167;SDS011;64927;48.214;16.378;2023-03-14T04:36:16;9.48;;;5.07;;
76167;SDS011;64927;48.214;16.378;2023-03-14T04:38:43;7.38;;;4.28;;
76167;SDS011;64927;48.214;16.378;2023-03-14T04:41:11;9.00;;;4.85;;
76167;SDS011;64927;48.214;16.378;2023-03-14T04:43:37;8.80;;;4.78;;
76167;SDS011;64927;48.214;16.378;2023-03-14T04:46:03;8.27;;;4.60;;
76167;SDS011;64927;48.214;16.378;2023-03-14T04:48:31;9.10;;;4.68;;
76167;SDS011;64927;48.214;16.378;2023-03-14T04:51:01;10.98;;;4.55;;
76167;SDS011;64927;48.214;16.378;2023-03-14T04:53:29;7.28;;;4.30;;
76167;SDS011;64927;48.214;16.378;2023-03-14T04:55:55;8.02;;;3.63;;
76167;SDS011;64927;48.214;16.378;2023-03-14T04:58:24;6.22;;;4.03;;
76167;SDS011;64927;48.214;16.378;2023-03-14T05:00:49;6.90;;;3.70;;
76167;SDS011;64927;48.214;16.378;2023-03-14T05:03:16;8.82;;;3.70;;
76167;SDS011;64927;48.214;16.378;2023-03-14T05:05:42;5.65;;;3.85;;
76167;SDS011;64927;48.214;16.378;2023-03-14T05:08:08;8.85;;;3.75;;
76167;SDS011;64927;48.214;16.378;2023-03-14T05:10:34;6.18;;;3.83;;
76167;SDS011;64927;48.214;16.378;2023-03-14T05:13:00;7.75;;;3.72;;
76167;SDS011;64927;48.214;16.378;2023-03-14T05:15:25;7.75;;;3.83;;
76167;SDS011;64927;48.214;16.378;2023-03-14T05:17:54;6.70;;;3.33;;
76167;SDS011;64927;48.214;16.378;2023-03-14T05:20:19;7.85;;;3.97;;
76167;SDS011;64927;48.214;16.378;2023-03-14T05:22:48;8.63;;;4.40;;
76167;SDS011;64927;48.214;16.378;2023-03-14T05:25:16;8.25;;;3.70;;
76167;SDS011;64927;48.214;16.378;2023-03-14T05:27:45;5.82;;;3.78;;
76167;SDS011;64927;48.214;16.378;2023-03-14T05:30:10;7.47;;;4.00;;
76167;SDS011;64927;48.214;16.378;2023-03-14T05:32:36;8.43;;;3.85;;
76167;SDS011;64927;48.214;16.378;2023-03-14T05:35:05;12.95;;;4.43;;
76167;SDS011;64927;48.214;16.378;2023-03-14T05:37:30;7.30;;;4.25;;
76167;SDS011;64927;48.214;16.378;2023-03-14T05:39:56;8.80;;;4.25;;
76167;SDS011;64927;48.214;16.378;2023-03-14T05:42:22;10.30;;;4.07;;
76167;SDS011;64927;48.214;16.378;2023-03-14T05:44:49;7.07;;;3.97;;
76167;SDS011;64927;48.214;16.378;2023-03-14T05:47:15;10.98;;;3.85;;
76167;SDS011;64927;48.214;16.378;2023-03-14T05:49:41;9.07;;;4.70;;
76167;SDS011;64927;48.214;16.378;2023-03-14T05:52:06;6.15;;;4.07;;
76167;SDS011;64927;48.214;16.378;2023-03-14T05:54:32;7.63;;;4.57;;
76167;SDS011;64927;48.214;16.378;2023-03-14T05:56:58;7.65;;;4.53;;
76167;SDS011;64927;48.214;16.378;2023-03-14T05:59:26;10.02;;;5.00;;
76167;SDS011;64927;48.214;16.378;2023-03-14T06:01:51;12.95;;;5.50;;
76167;SDS011;64927;48.214;16.378;2023-03-14T06:04:17;9.20;;;4.25;;
76167;SDS011;64927;48.214;16.378;2023-03-14T06:06:42;13.48;;;4.75;;
76167;SDS011;64927;48.214;16.378;2023-03-14T06:09:08;8.77;;;4.10;;
76167;SDS011;64927;48.214;16.378;2023-03-14T06:11:38;7.97;;;4.10;;
76167;SDS011;64927;48.214;16.378;2023-03-14T06:14:04;8.73;;;4.88;;
76167;SDS011;64927;48.214;16.378;2023-03-14T06:16:29;7.22;;;4.55;;
76167;SDS011;64927;48.214;16.378;2023-03-14T06:18:57;16.88;;;4.28;;
76167;SDS011;64927;48.214;16.378;2023-03-14T06:21:22;12.05;;;4.30;;
76167;SDS011;64927;48.214;16.378;2023-03-14T06:23:48;11.93;;;5.43;;
76167;SDS011;64927;48.214;16.378;2023-03-14T06:26:14;17.02;;;7.72;;
76167;SDS011;64927;48.214;16.378;2023-03-14T06:28:39;14.57;;;6.10;;
76167;SDS011;64927;48.214;16.378;2023-03-14T06:31:05;9.23;;;5.70;;
76167;SDS011;64927;48.214;16.378;2023-03-14T06:33:31;16.33;;;5.32;;
76167;SDS011;64927;48.214;16.378;2023-03-14T06:35:57;10.23;;;5.25;;
76167;SDS011;64927;48.214;16.378;2023-03-14T06:38:22;10.77;;;4.68;;
76167;SDS011;64927;48.214;16.378;2023-03-14T06:40:48;14.40;;;5.00;;
76167;SDS011;64927;48.214;16.378;2023-03-14T06:43:14;12.02;;;5.07;;
76167;SDS011;64927;48.214;16.378;2023-03-14T06:45:39;20.40;;;5.68;;
76167;SDS011;64927;48.214;16.378;2023-03-14T06:48:05;10.70;;;4.65;;
76167;SDS011;64927;48.214;16.378;2023-03-14T06:50:31;12.80;;;5.50;;
76167;SDS011;64927;48.214;16.378;2023-03-14T06:52:56;18.73;;;5.45;;
76167;SDS011;64927;48.214;16.378;2023-03-14T06:55:24;13.70;;;5.03;;
76167;SDS011;64927;48.214;16.378;2023-03-14T06:57:51;16.92;;;5.18;;
76167;SDS011;64927;48.214;16.378;2023-03-14T07:00:19;17.05;;;5.40;;
76167;SDS011;64927;48.214;16.378;2023-03-14T07:02:44;19.15;;;6.32;;
76167;SDS011;64927;48.214;16.378;2023-03-14T07:05:10;13.15;;;4.65;;
76167;SDS011;64927;48.214;16.378;2023-03-14T07:07:36;16.27;;;5.25;;
76167;SDS011;64927;48.214;16.378;2023-03-14T07:10:01;13.48;;;5.22;;
76167;SDS011;64927;48.214;16.378;2023-03-14T07:12:27;9.77;;;4.43;;
76167;SDS011;64927;48.214;16.378;2023-03-14T07:14:53;12.48;;;5.15;;
76167;SDS011;64927;48.214;16.378;2023-03-14T07:17:18;13.23;;;4.65;;
76167;SDS011;64927;48.214;16.378;2023-03-14T07:19:44;13.23;;;5.35;;
76167;SDS011;64927;48.214;16.378;2023-03-14T07:22:10;14.70;;;5.32;;
76167;SDS011;64927;48.214;16.378;2023-03-14T07:24:35;17.05;;;5.20;;
76167;SDS011;64927;48.214;16.378;2023-03-14T07:27:01;15.38;;;5.32;;
76167;SDS011;64927;48.214;16.378;2023-03-14T07:29:29;13.55;;;5.38;;
76167;SDS011;64927;48.214;16.378;2023-03-14T07:31:57;16.92;;;4.93;;
76167;SDS011;64927;48.214;16.378;2023-03-14T07:34:22;9.25;;;4.80;;
76167;SDS011;64927;48.214;16.378;2023-03-14T07:36:48;11.23;;;5.70;;
76167;SDS011;64927;48.214;16.378;2023-03-14T07:39:14;20.33;;;5.72;;
76167;SDS011;64927;48.214;16.378;2023-03-14T07:41:40;17.75;;;6.22;;
76167;SDS011;64927;48.214;16.378;2023-03-14T07:44:07;16.60;;;5.13;;
76167;SDS011;64927;48.214;16.378;2023-03-14T07:46:33;13.95;;;5.13;;
76167;SDS011;64927;48.214;16.378;2023-03-14T07:49:01;15.68;;;5.75;;
76167;SDS011;64927;48.214;16.378;2023-03-14T07:51:26;10.73;;;4.78;;
76167;SDS011;64927;48.214;16.378;2023-03-14T07:53:52;13.60;;;4.88;;
76167;SDS011;64927;48.214;16.378;2023-03-14T07:56:20;10.73;;;4.68;;
76167;SDS011;64927;48.214;16.378;2023-03-14T07:58:46;12.80;;;4.55;;
76167;SDS011;64927;48.214;16.378;2023-03-14T08:01:11;11.70;;;4.90;;
76167;SDS011;64927;48.214;16.378;2023-03-14T08:03:37;12.68;;;4.65;;
76167;SDS011;64927;48.214;16.378;2023-03-14T08:06:03;14.38;;;4.20;;
76167;SDS011;64927;48.214;16.378;2023-03-14T08:08:29;6.57;;;4.00;;
76167;SDS011;64927;48.214;16.378;2023-03-14T08:10:54;14.57;;;4.25;;
76167;SDS011;64927;48.214;16.378;2023-03-14T08:13:26;12.00;;;4.30;;
76167;SDS011;64927;48.214;16.378;2023-03-14T08:15:52;7.05;;;3.55;;
76167;SDS011;64927;48.214;16.378;2023-03-14T08:18:18;11.05;;;3.70;;
76167;SDS011;64927;48.214;16.378;2023-03-14T08:20:43;8.07;;;3.45;;
76167;SDS011;64927;48.214;16.378;2023-03-14T08:23:09;11.15;;;3.67;;
76167;SDS011;64927;48.214;16.378;2023-03-14T08:25:35;11.48;;;3.47;;
76167;SDS011;64927;48.214;16.378;2023-03-14T08:28:00;12.02;;;3.55;;
76167;SDS011;64927;48.214;16.378;2023-03-14T08:30:26;13.07;;;4.30;;
76167;SDS011;64927;48.214;16.378;2023-03-14T08:32:52;14.13;;;4.22;;
76167;SDS011;64927;48.214;16.378;2023-03-14T08:35:17;17.45;;;4.20;;
76167;SDS011;64927;48.214;16.378;2023-03-14T08:37:49;10.10;;;4.05;;
76167;SDS011;64927;48.214;16.378;2023-03-14T08:40:17;12.93;;;4.43;;
76167;SDS011;64927;48.214;16.378;2023-03-14T08:42:43;10.52;;;4.18;;
76167;SDS011;64927;48.214;16.378;2023-03-14T08:45:11;7.57;;;3.80;;
76167;SDS011;64927;48.214;16.378;2023-03-14T08:47:38;9.60;;;3.83;;
76167;SDS011;64927;48.214;16.378;2023-03-14T08:50:07;14.95;;;4.57;;
76167;SDS011;64927;48.214;16.378;2023-03-14T08:52:35;9.63;;;3.90;;
76167;SDS011;64927;48.214;16.378;2023-03-14T08:55:06;10.00;;;4.10;;
76167;SDS011;64927;48.214;16.378;2023-03-14T08:57:33;8.68;;;4.00;;
76167;SDS011;64927;48.214;16.378;2023-03-14T08:59:59;9.88;;;3.97;;
76167;SDS011;64927;48.214;16.378;2023-03-14T09:02:25;10.45;;;3.97;;
76167;SDS011;64927;48.214;16.378;2023-03-14T09:04:51;12.77;;;5.20;;
76167;SDS011;64927;48.214;16.378;2023-03-14T09:07:21;7.65;;;3.22;;
76167;SDS011;64927;48.214;16.378;2023-03-14T09:09:49;13.95;;;4.47;;
76167;SDS011;64927;48.214;16.378;2023-03-14T09:12:16;11.05;;;4.63;;
76167;SDS011;64927;48.214;16.378;2023-03-14T09:14:41;14.88;;;4.25;;
76167;SDS011;64927;48.214;16.378;2023-03-14T09:17:07;15.77;;;4.60;;
76167;SDS011;64927;48.214;16.378;2023-03-14T09:19:33;15.05;;;5.18;;
76167;SDS011;64927;48.214;16.378;2023-03-14T09:21:58;18.70;;;5.75;;
76167;SDS011;64927;48.214;16.378;2023-03-14T09:24:24;15.90;;;5.57;;
76167;SDS011;64927;48.214;16.378;2023-03-14T09:26:51;12.85;;;5.53;;
76167;SDS011;64927;48.214;16.378;2023-03-14T09:29:23;10.88;;;5.68;;
76167;SDS011;64927;48.214;16.378;2023-03-14T09:31:49;15.70;;;6.07;;
76167;SDS011;64927;48.214;16.378;2023-03-14T09:34:21;12.90;;;5.43;;
76167;SDS011;64927;48.214;16.378;2023-03-14T09:36:53;12.25;;;5.43;;
76167;SDS011;64927;48.214;16.378;2023-03-14T09:39:19;12.15;;;5.05;;
76167;SDS011;64927;48.214;16.378;2023-03-14T09:41:48;11.38;;;5.15;;
76167;SDS011;64927;48.214;16.378;2023-03-14T09:44:24;13.27;;;5.05;;
76167;SDS011;64927;48.214;16.378;2023-03-14T09:46:54;16.50;;;5.40;;
76167;SDS011;64927;48.214;16.378;2023-03-14T09:49:34;16.73;;;5.43;;
76167;SDS011;64927;48.214;16.378;2023-03-14T09:52:11;13.70;;;5.25;;
76167;SDS011;64927;48.214;16.378;2023-03-14T09:57:23;17.88;;;5.55;;
76167;SDS011;64927;48.214;16.378;2023-03-14T09:59:58;17.02;;;5.10;;
76167;SDS011;64927;48.214;16.378;2023-03-14T10:05:16;15.63;;;5.28;;
76167;SDS011;64927;48.214;16.378;2023-03-14T10:07:44;20.13;;;5.68;;
76167;SDS011;64927;48.214;16.378;2023-03-14T10:10:14;20.25;;;5.00;;
76167;SDS011;64927;48.214;16.378;2023-03-14T10:12:54;21.17;;;6.07;;
76167;SDS011;64927;48.214;16.378;2023-03-14T10:15:41;12.77;;;5.78;;
76167;SDS011;64927;48.214;16.378;2023-03-14T10:18:13;14.95;;;5.65;;
76167;SDS011;64927;48.214;16.378;2023-03-14T10:20:44;23.20;;;7.82;;
76167;SDS011;64927;48.214;16.378;2023-03-14T10:25:37;18.20;;;6.20;;
76167;SDS011;64927;48.214;16.378;2023-03-14T10:28:22;22.60;;;6.50;;
76167;SDS011;64927;48.214;16.378;2023-03-14T10:30:59;22.23;;;6.25;;
76167;SDS011;64927;48.214;16.378;2023-03-14T10:33:30;19.58;;;7.28;;
76167;SDS011;64927;48.214;16.378;2023-03-14T10:38:56;17.50;;;5.28;;
76167;SDS011;64927;48.214;16.378;2023-03-14T10:41:55;10.32;;;1.67;;
76167;SDS011;64927;48.214;16.378;2023-03-14T10:44:48;5.07;;;1.77;;
76167;SDS011;64927;48.214;16.378;2023-03-14T10:47:22;10.80;;;3.97;;
76167;SDS011;64927;48.214;16.378;2023-03-14T10:49:53;3.17;;;0.90;;
76167;SDS011;64927;48.214;16.378;2023-03-14T10:52:31;3.88;;;1.00;;
76167;SDS011;64927;48.214;16.378;2023-03-14T10:54:58;5.30;;;1.08;;
76167;SDS011;64927;48.214;16.378;2023-03-14T10:57:32;8.93;;;1.55;;
76167;SDS011;64927;48.214;16.378;2023-03-14T11:00:22;1.95;;;0.73;;
76167;SDS011;64927;48.214;16.378;2023-03-14T11:11:47;1.48;;;0.90;;
76167;SDS011;64927;48.214;16.378;2023-03-14T11:14:33;2.38;;;0.88;;
76167;SDS011;64927;48.214;16.378;2023-03-14T11:17:20;5.43;;;0.95;;
76167;SDS011;64927;48.214;16.378;2023-03-14T11:25:27;1.83;;;1.08;;
76167;SDS011;64927;48.214;16.378;2023-03-14T11:28:02;0.90;;;0.50;;
76167;SDS011;64927;48.214;16.378;2023-03-14T11:30:55;4.93;;;1.00;;
76167;SDS011;64927;48.214;16.378;2023-03-14T11:33:35;1.65;;;0.60;;
76167;SDS011;64927;48.214;16.378;2023-03-14T11:36:07;2.15;;;0.75;;
76167;SDS011;64927;48.214;16.378;2023-03-14T11:38:38;1.00;;;0.73;;
76167;SDS011;64927;48.214;16.378;2023-03-14T11:43:55;1.85;;;0.70;;
76167;SDS011;64927;48.214;16.378;2023-03-14T11:46:48;3.22;;;0.70;;
76167;SDS011;64927;48.214;16.378;2023-03-14T11:49:36;5.63;;;2.33;;
76167;SDS011;64927;48.214;16.378;2023-03-14T11:55:26;0.93;;;0.60;;
76167;SDS011;64927;48.214;16.378;2023-03-14T11:58:03;1.58;;;0.68;;
76167;SDS011;64927;48.214;16.378;2023-03-14T12:00:41;2.03;;;0.88;;
76167;SDS011;64927;48.214;16.378;2023-03-14T12:08:25;3.67;;;0.98;;
76167;SDS011;64927;48.214;16.378;2023-03-14T12:11:01;2.05;;;0.68;;
76167;SDS011;64927;48.214;16.378;2023-03-14T12:13:36;5.07;;;1.90;;
76167;SDS011;64927;48.214;16.378;2023-03-14T12:16:48;2.55;;;1.67;;
76167;SDS011;64927;48.214;16.378;2023-03-14T12:18:49;1.23;;;0.70;;
76167;SDS011;64927;48.214;16.378;2023-03-14T12:21:16;5.47;;;0.90;;
76167;SDS011;64927;48.214;16.378;2023-03-14T12:49:43;2.35;;;0.95;;
76167;SDS011;64927;48.214;16.378;2023-03-14T12:52:35;5.25;;;1.58;;
76167;SDS011;64927;48.214;16.378;2023-03-14T13:01:07;1.90;;;0.80;;
76167;SDS011;64927;48.214;16.378;2023-03-14T13:03:51;8.23;;;1.10;;
76167;SDS011;64927;48.214;16.378;2023-03-14T13:06:56;1.50;;;0.80;;
76167;SDS011;64927;48.214;16.378;2023-03-14T13:11:54;2.92;;;0.88;;
76167;SDS011;64927;48.214;16.378;2023-03-14T13:14:21;2.95;;;0.80;;
76167;SDS011;64927;48.214;16.378;2023-03-14T13:16:48;3.13;;;0.60;;
76167;SDS011;64927;48.214;16.378;2023-03-14T13:19:18;2.30;;;0.85;;
76167;SDS011;64927;48.214;16.378;2023-03-14T13:21:56;1.73;;;0.95;;
76167;SDS011;64927;48.214;16.378;2023-03-14T13:24:26;0.75;;;0.55;;
76167;SDS011;64927;48.214;16.378;2023-03-14T13:26:53;1.80;;;0.88;;
76167;SDS011;64927;48.214;16.378;2023-03-14T13:29:27;1.75;;;0.63;;
76167;SDS011;64927;48.214;16.378;2023-03-14T13:31:56;1.10;;;0.60;;
76167;SDS011;64927;48.214;16.378;2023-03-14T13:34:25;1.55;;;0.52;;
76167;SDS011;64927;48.214;16.378;2023-03-14T13:36:55;1.60;;;0.73;;
76167;SDS011;64927;48.214;16.378;2023-03-14T13:39:22;3.72;;;0.90;;
76167;SDS011;64927;48.214;16.378;2023-03-14T13:41:50;2.67;;;0.75;;
76167;SDS011;64927;48.214;16.378;2023-03-14T13:44:21;0.65;;;0.45;;
76167;SDS011;64927;48.214;16.378;2023-03-14T13:47:00;1.42;;;0.95;;
76167;SDS011;64927;48.214;16.378;2023-03-14T13:49:28;1.92;;;0.82;;
76167;SDS011;64927;48.214;16.378;2023-03-14T13:51:57;1.70;;;0.82;;
76167;SDS011;64927;48.214;16.378;2023-03-14T13:54:25;1.88;;;0.50;;
76167;SDS011;64927;48.214;16.378;2023-03-14T13:57:01;2.25;;;0.73;;
76167;SDS011;64927;48.214;16.378;2023-03-14T13:59:32;1.08;;;0.77;;
76167;SDS011;64927;48.214;16.378;2023-03-14T14:02:15;2.42;;;0.70;;
76167;SDS011;64927;48.214;16.378;2023-03-14T14:04:41;5.43;;;1.63;;
76167;SDS011;64927;48.214;16.378;2023-03-14T14:07:07;2.72;;;0.70;;
76167;SDS011;64927;48.214;16.378;2023-03-14T14:09:37;2.95;;;0.80;;
76167;SDS011;64927;48.214;16.378;2023-03-14T14:17:12;2.03;;;0.80;;
76167;SDS011;64927;48.214;16.378;2023-03-14T14:19:40;2.97;;;0.68;;
76167;SDS011;64927;48.214;16.378;2023-03-14T14:22:08;1.52;;;1.10;;
76167;SDS011;64927;48.214;16.378;2023-03-14T14:24:35;3.47;;;0.93;;
76167;SDS011;64927;48.214;16.378;2023-03-14T14:27:23;7.00;;;0.80;;
76167;SDS011;64927;48.214;16.378;2023-03-14T14:30:03;6.28;;;3.90;;
76167;SDS011;64927;48.214;16.378;2023-03-14T14:35:03;2.35;;;1.00;;
76167;SDS011;64927;48.214;16.378;2023-03-14T14:37:32;2.13;;;0.95;;
76167;SDS011;64927;48.214;16.378;2023-03-14T14:40:09;0.90;;;0.70;;
76167;SDS011;64927;48.214;16.378;2023-03-14T14:42:42;4.47;;;1.20;;
76167;SDS011;64927;48.214;16.378;2023-03-14T14:45:13;2.65;;;1.10;;
76167;SDS011;64927;48.214;16.378;2023-03-14T14:47:54;2.80;;;1.08;;
76167;SDS011;64927;48.214;16.378;2023-03-14T14:52:55;2.40;;;1.08;;
76167;SDS011;64927;48.214;16.378;2023-03-14T14:55:23;5.85;;;1.40;;
76167;SDS011;64927;48.214;16.378;2023-03-14T14:57:58;2.53;;;0.93;;
76167;SDS011;64927;48.214;16.378;2023-03-14T15:00:41;2.95;;;1.20;;
76167;SDS011;64927;48.214;16.378;2023-03-14T15:03:17;1.98;;;1.38;;
76167;SDS011;64927;48.214;16.378;2023-03-14T15:05:45;2.95;;;0.95;;
76167;SDS011;64927;48.214;16.378;2023-03-14T15:08:13;4.05;;;1.00;;
76167;SDS011;64927;48.214;16.378;2023-03-14T15:10:39;1.98;;;0.80;;
76167;SDS011;64927;48.214;16.378;2023-03-14T15:13:05;3.63;;;1.00;;
76167;SDS011;64927;48.214;16.378;2023-03-14T15:15:30;1.48;;;0.98;;
76167;SDS011;64927;48.214;16.378;2023-03-14T15:17:56;3.03;;;1.00;;
76167;SDS011;64927;48.214;16.378;2023-03-14T15:20:22;1.33;;;0.90;;
76167;SDS011;64927;48.214;16.378;2023-03-14T15:22:51;2.55;;;0.90;;
76167;SDS011;64927;48.214;16.378;2023-03-14T15:25:17;1.45;;;0.77;;
76167;SDS011;64927;48.214;16.378;2023-03-14T15:27:42;1.45;;;1.02;;
76167;SDS011;64927;48.214;16.378;2023-03-14T15:30:10;1.35;;;0.90;;
76167;SDS011;64927;48.214;16.378;2023-03-14T15:32:39;1.58;;;0.80;;
76167;SDS011;64927;48.214;16.378;2023-03-14T15:35:08;1.83;;;1.00;;
76167;SDS011;64927;48.214;16.378;2023-03-14T15:37:36;4.00;;;2.30;;
76167;SDS011;64927;48.214;16.378;2023-03-14T15:40:03;1.52;;;1.08;;
76167;SDS011;64927;48.214;16.378;2023-03-14T15:42:36;3.45;;;1.35;;
76167;SDS011;64927;48.214;16.378;2023-03-14T15:45:04;4.07;;;1.35;;
76167;SDS011;64927;48.214;16.378;2023-03-14T15:47:31;4.85;;;1.35;;
76167;SDS011;64927;48.214;16.378;2023-03-14T15:49:57;4.20;;;1.25;;
76167;SDS011;64927;48.214;16.378;2023-03-14T15:52:25;2.03;;;1.13;;
76167;SDS011;64927;48.214;16.378;2023-03-14T15:54:50;4.32;;;1.40;;
76167;SDS011;64927;48.214;16.378;2023-03-14T15:57:16;3.85;;;1.45;;
76167;SDS011;64927;48.214;16.378;2023-03-14T15:59:44;3.88;;;1.15;;
76167;SDS011;64927;48.214;16.378;2023-03-14T16:02:10;2.50;;;1.23;;
76167;SDS011;64927;48.214;16.378;2023-03-14T16:04:35;4.72;;;1.55;;
76167;SDS011;64927;48.214;16.378;2023-03-14T16:07:01;5.18;;;2.97;;
76167;SDS011;64927;48.214;16.378;2023-03-14T16:09:27;11.45;;;5.38;;
76167;SDS011;64927;48.214;16.378;2023-03-14T16:11:53;4.50;;;2.10;;
76167;SDS011;64927;48.214;16.378;2023-03-14T16:14:18;8.45;;;3.33;;